Orto / Ocaso: 06:03 / 18:16 UTC (Datos para LEAX 20-09-2017)

[fuente: ADDS]

METAR:


LEMG 201800Z 14005KT CAVOK 22/18 Q1017 NOSIG =
LEGR 201800Z 23003KT CAVOK 27/07 Q1018 =
LEZL 201800Z VRB01KT CAVOK 30/08 Q1015 NOSIG =
LEAM 201800Z VRB02KT 9999 FEW010 24/18 Q1017 =
LEBA 201800Z 00000KT CAVOK 29/07 Q1015 =
LEJR 201800Z 24007KT CAVOK 27/13 Q1016 =
GEML 201800Z 06003KT 020V110 9999 FEW011 23/20 Q1017 =
LXGB 201750Z 05006KT 5000 HZ FEW004 SCT200 20/18 Q1017 NOSIG =

TAFOR:


TAF LEMG 201700Z 2018/2118 13007KT 9999 FEW020 TX27/2113Z TN18/2106Z BECMG 2018/2020 VRB03KT TEMPO 2102/2109 29006KT BECMG 2110/2112 14008KT =
TAF LEGR 201400Z 2015/2115 VRB03KT CAVOK TX32/2115Z TN10/2106Z PROB40 TEMPO 2015/2018 21010KT =
TAF LEZL 201400Z 2015/2115 VRB03KT CAVOK TX33/2115Z TN15/2106Z BECMG 2016/2018 22010KT BECMG 2022/2024 VRB02KT =
TAF LEAM 201400Z 2015/2115 19010KT 9999 FEW020 TX30/2114Z TN19/2105Z BECMG 2018/2021 06006KT BECMG 2102/2104 35010KT BECMG 2110/2112 08011KT =
TAF LEBA 201700Z 2018/2103 VRB04KT CAVOK =
TAF LEJR 201700Z 2018/2118 24010KT CAVOK TX32/2115Z TN14/2106Z BECMG 2019/2021 VRB02KT BECMG 2112/2115 25010KT =
TAF GEML 201400Z 2015/2115 07006KT 9999 SCT015 TX27/2114Z TN21/2106Z PROB40 TEMPO 2104/2109 BKN008 =
TAF LXGB 201618Z 2018/2022 07008KT 9999 FEW003 PROB40 TEMPO 2018/2022 7000 HZ SCT007 =

Recuerde que, aunque regularmente actualizada, la información meteorológica aquí presentada no debe ser utilizada para la planificación de vuelos. Si lo desea, puede consultar la información meteorológica adecuada, tanto de aeródromos como en ruta, por las vías oficialmente establecidas en la legislación -> AQUí